Time;durP1;ratioP1;P1;durP2;ratioP2;P2;SDS_P1;SDS_P2;PMS_P1;PMS_P2;Temp;Humidity;BMP_temperature;BMP_pressure;BME280_temperature;BME280_humidity;BME280_pressure;Samples;Min_cycle;Max_cycle;Signal;HPM_P1;HPM_P2
2023/03/11 00:00:35;;;;;;;1.50;1.40;;;4.30;99.90;;;;;;2084034;28;20063;-76
2023/03/11 00:01:37;;;;;;;1.50;1.40;;;4.30;99.90;;;;;;2063698;28;20453;-76
2023/03/11 00:02:42;;;;;;;1.40;1.30;;;4.20;99.90;;;;;;2079370;28;20064;-76
2023/03/11 00:03:43;;;;;;;1.40;1.30;;;4.20;99.90;;;;;;2079674;28;20404;-77
2023/03/11 00:04:44;;;;;;;1.52;1.42;;;4.20;99.90;;;;;;2070610;28;20420;-75
2023/03/11 00:05:45;;;;;;;1.58;1.48;;;4.20;99.90;;;;;;2071492;28;20682;-77
2023/03/11 00:06:46;;;;;;;1.40;1.30;;;4.10;99.90;;;;;;2082234;28;20461;-76
2023/03/11 00:07:46;;;;;;;1.58;1.48;;;4.10;99.90;;;;;;2077713;28;20503;-76
2023/03/11 00:08:47;;;;;;;1.60;1.50;;;4.10;99.90;;;;;;2074224;28;20029;-77
2023/03/11 00:09:48;;;;;;;1.70;1.60;;;4.00;99.90;;;;;;2080231;28;20226;-76
2023/03/11 00:10:54;;;;;;;1.70;1.60;;;4.00;99.90;;;;;;2079181;28;20026;-77
2023/03/11 00:11:54;;;;;;;1.65;1.55;;;3.90;99.90;;;;;;2076309;28;20033;-77
2023/03/11 00:12:55;;;;;;;1.90;1.70;;;3.90;99.90;;;;;;2070519;28;20029;-77
2023/03/11 00:13:55;;;;;;;1.65;1.55;;;3.80;99.90;;;;;;2064675;28;20076;-77
2023/03/11 00:14:56;;;;;;;1.90;1.80;;;3.80;99.90;;;;;;2070231;28;20033;-76
2023/03/11 00:15:58;;;;;;;1.80;1.65;;;3.80;99.90;;;;;;2054168;28;20019;-77
2023/03/11 00:16:58;;;;;;;2.08;1.80;;;3.80;99.90;;;;;;2062710;28;20474;-75
2023/03/11 00:17:59;;;;;;;1.65;1.55;;;3.80;99.90;;;;;;2080204;28;20048;-76
2023/03/11 00:19:00;;;;;;;1.60;1.50;;;3.80;99.90;;;;;;2068788;28;20532;-76
2023/03/11 00:20:01;;;;;;;1.73;1.63;;;3.70;99.90;;;;;;2069016;28;20033;-78
2023/03/11 00:21:01;;;;;;;1.92;1.65;;;3.80;99.90;;;;;;2077749;28;20037;-76
2023/03/11 00:22:02;;;;;;;1.45;1.35;;;3.80;99.90;;;;;;2080356;28;20556;-77
2023/03/11 00:23:04;;;;;;;1.60;1.50;;;3.70;99.90;;;;;;2079274;28;20037;-78
2023/03/11 00:24:05;;;;;;;1.60;1.50;;;3.70;99.90;;;;;;2078974;28;20032;-76
2023/03/11 00:25:05;;;;;;;2.17;1.55;;;3.70;99.90;;;;;;2070611;28;20069;-77
2023/03/11 00:26:06;;;;;;;1.50;1.40;;;3.70;99.90;;;;;;2072281;28;20030;-77
2023/03/11 00:27:07;;;;;;;1.70;1.60;;;3.60;99.90;;;;;;2069044;28;20425;-77
2023/03/11 00:28:09;;;;;;;1.60;1.42;;;3.60;99.90;;;;;;2081677;28;20500;-76
2023/03/11 00:29:09;;;;;;;1.60;1.50;;;3.60;99.90;;;;;;2073450;28;20087;-76
2023/03/11 00:30:12;;;;;;;1.50;1.40;;;3.60;99.90;;;;;;2071013;28;20057;-76
2023/03/11 00:31:13;;;;;;;1.45;1.35;;;3.60;99.90;;;;;;2059116;28;20022;-77
2023/03/11 00:32:13;;;;;;;1.80;1.50;;;3.50;99.90;;;;;;2062051;28;20495;-76
2023/03/11 00:33:15;;;;;;;1.40;1.30;;;3.50;99.90;;;;;;2065887;28;20441;-76
2023/03/11 00:34:16;;;;;;;1.70;1.60;;;3.50;99.90;;;;;;2060455;28;20461;-77
2023/03/11 00:35:20;;;;;;;1.65;1.55;;;3.40;99.90;;;;;;2070473;28;20052;-77
2023/03/11 00:36:30;;;;;;;1.60;1.50;;;3.40;99.90;;;;;;2079477;28;20391;-76
2023/03/11 00:37:30;;;;;;;1.80;1.70;;;3.30;99.90;;;;;;2079184;28;20089;-78
2023/03/11 00:38:32;;;;;;;1.70;1.55;;;3.30;99.90;;;;;;2080242;28;20079;-76
2023/03/11 00:39:33;;;;;;;2.10;1.90;;;3.30;99.90;;;;;;2069094;28;20376;-77
2023/03/11 00:40:35;;;;;;;1.95;1.75;;;3.30;99.90;;;;;;2068935;28;20029;-76
2023/03/11 00:41:36;;;;;;;1.88;1.77;;;3.20;99.90;;;;;;2068855;28;20148;-76
2023/03/11 00:42:37;;;;;;;2.00;1.90;;;3.20;99.90;;;;;;2062591;28;20034;-77
2023/03/11 00:43:37;;;;;;;2.10;1.90;;;3.10;99.90;;;;;;2069909;28;20030;-76
2023/03/11 00:44:38;;;;;;;2.03;1.85;;;3.10;99.90;;;;;;2062017;28;20503;-76
2023/03/11 00:45:39;;;;;;;2.00;1.80;;;3.10;99.90;;;;;;2053631;28;20057;-76
2023/03/11 00:46:39;;;;;;;2.10;1.90;;;3.10;99.90;;;;;;2071835;28;20025;-76
2023/03/11 00:47:40;;;;;;;2.00;1.90;;;3.10;99.90;;;;;;2057643;28;20030;-75
2023/03/11 00:48:41;;;;;;;2.22;2.03;;;3.10;99.90;;;;;;2059193;28;20338;-75
2023/03/11 00:49:42;;;;;;;2.20;2.00;;;3.00;99.90;;;;;;2078177;28;20128;-75
2023/03/11 00:50:43;;;;;;;2.10;1.90;;;3.00;99.90;;;;;;2079632;28;20511;-75
2023/03/11 00:51:44;;;;;;;2.30;1.95;;;3.00;99.90;;;;;;2063586;28;20023;-75
2023/03/11 00:52:46;;;;;;;2.30;2.10;;;3.00;99.90;;;;;;2053545;28;20820;-75
2023/03/11 00:53:47;;;;;;;2.30;2.10;;;3.00;99.90;;;;;;2062804;28;20104;-74
2023/03/11 00:54:47;;;;;;;2.20;2.00;;;3.00;99.90;;;;;;2067406;28;20029;-75
2023/03/11 00:55:49;;;;;;;2.33;2.13;;;3.00;99.90;;;;;;2066453;28;20033;-75
2023/03/11 00:56:49;;;;;;;2.25;2.00;;;3.00;99.90;;;;;;2065376;28;20524;-74
2023/03/11 00:57:54;;;;;;;1.98;1.83;;;3.00;99.90;;;;;;2060827;28;20430;-75
2023/03/11 00:58:56;;;;;;;2.00;1.90;;;3.00;99.90;;;;;;2059607;28;20026;-75
2023/03/11 00:59:58;;;;;;;2.03;1.80;;;3.00;99.90;;;;;;2065233;28;20109;-74
2023/03/11 01:00:59;;;;;;;2.17;1.98;;;3.00;99.90;;;;;;2071694;28;20424;-74
2023/03/11 01:01:59;;;;;;;2.15;1.95;;;3.00;99.90;;;;;;2078829;28;20030;-78
2023/03/11 01:03:00;;;;;;;2.20;2.00;;;3.00;99.90;;;;;;2076457;28;20038;-75
2023/03/11 01:04:01;;;;;;;2.30;2.10;;;2.90;99.90;;;;;;2080334;28;20025;-75
2023/03/11 01:05:02;;;;;;;2.03;1.83;;;2.90;99.90;;;;;;2079919;28;20583;-74
2023/03/11 01:06:04;;;;;;;2.00;1.90;;;2.90;99.90;;;;;;2080972;28;20039;-75
2023/03/11 01:07:04;;;;;;;3.13;2.05;;;2.90;99.90;;;;;;2089892;28;20028;-75
2023/03/11 01:08:05;;;;;;;1.92;1.83;;;2.90;99.90;;;;;;2086020;28;20027;-75
2023/03/11 01:09:06;;;;;;;2.20;2.00;;;2.90;99.90;;;;;;2081903;28;20045;-75
2023/03/11 01:10:08;;;;;;;1.80;1.70;;;2.90;99.90;;;;;;2077103;28;20167;-75
2023/03/11 01:11:09;;;;;;;1.80;1.70;;;2.90;99.90;;;;;;2087561;28;20019;-75
2023/03/11 01:12:10;;;;;;;1.80;1.70;;;2.90;99.90;;;;;;2085175;28;20028;-75
2023/03/11 01:13:10;;;;;;;2.42;1.70;;;2.90;99.90;;;;;;2086585;28;20032;-75
2023/03/11 01:14:11;;;;;;;1.80;1.70;;;2.90;99.90;;;;;;2078320;28;20025;-74
2023/03/11 01:15:27;;;;;;;1.52;1.42;;;2.90;99.90;;;;;;2087347;28;20048;-75
2023/03/11 01:16:28;;;;;;;1.60;1.50;;;2.90;99.90;;;;;;2080311;28;20044;-75
2023/03/11 01:17:29;;;;;;;1.90;1.80;;;2.90;99.90;;;;;;2071112;28;20132;-75
2023/03/11 01:18:29;;;;;;;1.83;1.60;;;2.90;99.90;;;;;;2069107;28;20523;-74
2023/03/11 01:19:30;;;;;;;1.70;1.60;;;2.90;99.90;;;;;;2081562;28;20111;-74
2023/03/11 01:20:30;;;;;;;1.83;1.60;;;2.90;99.90;;;;;;2081500;28;20060;-75
2023/03/11 01:21:31;;;;;;;1.88;1.77;;;2.90;99.90;;;;;;2077058;28;20028;-75
2023/03/11 01:22:31;;;;;;;1.88;1.77;;;2.90;99.90;;;;;;2091628;28;20609;-76
2023/03/11 01:23:32;;;;;;;1.80;1.70;;;2.90;99.90;;;;;;2089333;28;20111;-76
2023/03/11 01:24:33;;;;;;;1.75;1.65;;;2.90;99.90;;;;;;2076845;28;20120;-76
2023/03/11 01:25:34;;;;;;;1.90;1.80;;;2.90;99.90;;;;;;2078366;28;20201;-76
2023/03/11 01:26:34;;;;;;;2.08;1.90;;;2.80;99.90;;;;;;2079540;28;20647;-74
2023/03/11 01:27:35;;;;;;;2.53;1.92;;;2.90;99.90;;;;;;2085069;28;20032;-74
2023/03/11 01:28:36;;;;;;;2.25;2.05;;;2.80;99.90;;;;;;2081711;28;20121;-74
2023/03/11 01:29:37;;;;;;;1.90;1.80;;;2.80;99.90;;;;;;2073162;28;20425;-74
2023/03/11 01:30:40;;;;;;;1.98;1.88;;;2.80;99.90;;;;;;2083555;28;20124;-75
2023/03/11 01:31:41;;;;;;;1.80;1.70;;;2.80;99.90;;;;;;2091921;28;20037;-75
2023/03/11 01:32:41;;;;;;;2.20;2.00;;;2.80;99.90;;;;;;2087517;28;20032;-75
2023/03/11 01:33:42;;;;;;;1.90;1.80;;;2.80;99.90;;;;;;2078263;28;20021;-75
2023/03/11 01:34:42;;;;;;;2.20;2.00;;;2.80;99.90;;;;;;2077983;28;20028;-74
2023/03/11 01:35:44;;;;;;;2.53;1.75;;;2.80;99.90;;;;;;2083308;28;20125;-74
2023/03/11 01:36:45;;;;;;;2.08;1.90;;;2.80;99.90;;;;;;2089770;28;20028;-75
2023/03/11 01:37:46;;;;;;;1.77;1.67;;;2.80;99.90;;;;;;2090881;28;20507;-75
2023/03/11 01:38:46;;;;;;;2.05;1.80;;;2.80;99.90;;;;;;2085500;28;20835;-75
2023/03/11 01:39:47;;;;;;;1.90;1.80;;;2.80;99.90;;;;;;2087862;28;20025;-75
2023/03/11 01:40:49;;;;;;;2.92;1.85;;;2.80;99.90;;;;;;2086974;28;20162;-74
2023/03/11 01:41:51;;;;;;;1.83;1.73;;;2.80;99.90;;;;;;2086786;28;20029;-74
2023/03/11 01:42:52;;;;;;;2.05;1.85;;;2.80;99.90;;;;;;2078635;28;20028;-76
2023/03/11 01:43:54;;;;;;;2.55;1.95;;;2.80;99.90;;;;;;2086772;28;20050;-75
2023/03/11 01:45:35;;;;;;;1.98;1.88;;;2.80;99.90;;;;;;2086459;28;20519;-77
2023/03/11 01:46:58;;;;;;;2.03;1.90;;;2.80;99.90;;;;;;2054807;28;20038;-75
2023/03/11 01:48:03;;;;;;;3.45;1.92;;;2.80;99.90;;;;;;2081654;28;20100;-77
2023/03/11 01:49:10;;;;;;;2.20;2.10;;;2.80;99.90;;;;;;2084601;28;20103;-77
2023/03/11 01:50:12;;;;;;;2.75;2.15;;;2.80;99.90;;;;;;2085482;28;20108;-76
2023/03/11 01:51:14;;;;;;;2.50;2.30;;;2.80;99.90;;;;;;2081757;28;20119;-77
2023/03/11 01:52:15;;;;;;;2.50;2.30;;;2.80;99.90;;;;;;2075761;28;20090;-76
2023/03/11 01:53:23;;;;;;;2.50;2.30;;;2.80;99.90;;;;;;2076463;28;20030;-76
2023/03/11 01:54:30;;;;;;;2.65;2.30;;;2.80;99.90;;;;;;2076399;28;20099;-75
2023/03/11 01:55:32;;;;;;;2.67;2.47;;;2.70;99.90;;;;;;2076874;28;20021;-76
2023/03/11 01:56:34;;;;;;;2.28;2.08;;;2.70;99.90;;;;;;2073282;28;20625;-77
2023/03/11 01:57:37;;;;;;;2.47;2.28;;;2.70;99.90;;;;;;2079121;28;20029;-77
2023/03/11 01:58:43;;;;;;;3.38;2.60;;;2.70;99.90;;;;;;2080336;28;20029;-75
2023/03/11 01:59:49;;;;;;;2.33;2.13;;;2.70;99.90;;;;;;2082014;28;20714;-77
2023/03/11 02:00:51;;;;;;;2.60;2.40;;;2.70;99.90;;;;;;2089497;28;20021;-76
2023/03/11 02:02:01;;;;;;;3.10;2.80;;;2.60;99.90;;;;;;2083420;28;20029;-76
2023/03/11 02:03:08;;;;;;;2.70;2.50;;;2.70;99.90;;;;;;2082443;28;20056;-76
2023/03/11 02:04:09;;;;;;;2.85;2.42;;;2.70;99.90;;;;;;2079911;28;20068;-75
2023/03/11 02:05:10;;;;;;;2.72;2.50;;;2.70;99.90;;;;;;2078431;28;20444;-76
2023/03/11 02:06:14;;;;;;;3.00;2.80;;;2.70;99.90;;;;;;2086705;28;20033;-76
2023/03/11 02:07:16;;;;;;;2.85;2.60;;;2.60;99.90;;;;;;2075376;28;20040;-76
2023/03/11 02:08:17;;;;;;;3.08;2.78;;;2.60;99.90;;;;;;2074666;28;20064;-77
2023/03/11 02:09:19;;;;;;;3.10;2.80;;;2.60;99.90;;;;;;2072567;28;20029;-75
2023/03/11 02:10:20;;;;;;;4.32;2.90;;;2.60;99.90;;;;;;2080586;28;20021;-76
2023/03/11 02:11:25;;;;;;;3.10;2.80;;;2.60;99.90;;;;;;2087874;28;20120;-77
2023/03/11 02:12:29;;;;;;;5.30;4.10;;;2.60;99.90;;;;;;2076701;28;20037;-76
2023/03/11 02:13:34;;;;;;;3.35;2.90;;;2.60;99.90;;;;;;2077163;28;20033;-77
2023/03/11 02:14:35;;;;;;;4.35;3.25;;;2.50;99.90;;;;;;2082532;28;20104;-77
2023/03/11 02:15:36;;;;;;;3.78;3.15;;;2.60;99.90;;;;;;2079422;28;20299;-77
2023/03/11 02:16:37;;;;;;;3.70;3.22;;;2.50;99.90;;;;;;2093351;28;20424;-76
2023/03/11 02:17:39;;;;;;;3.47;3.17;;;2.50;99.90;;;;;;2086595;28;20079;-76
2023/03/11 02:18:41;;;;;;;3.58;3.28;;;2.50;99.90;;;;;;2086621;28;20052;-76
2023/03/11 02:20:20;;;;;;;3.20;2.90;;;2.50;99.90;;;;;;2091224;28;20036;-76
2023/03/11 02:21:32;;;;;;;3.40;3.10;;;2.50;99.90;;;;;;2088747;28;20082;-77
2023/03/11 02:22:36;;;;;;;3.65;3.20;;;2.50;99.90;;;;;;2089491;28;20558;-77
2023/03/11 02:23:54;;;;;;;3.65;3.28;;;2.50;99.90;;;;;;2080012;28;20199;-76
2023/03/11 02:25:27;;;;;;;3.60;3.30;;;2.50;99.90;;;;;;2090162;28;20021;-77
2023/03/11 02:26:50;;;;;;;3.92;3.53;;;2.50;99.90;;;;;;2084336;28;20033;-77
2023/03/11 02:27:54;;;;;;;3.92;3.35;;;2.40;99.90;;;;;;2077910;28;20021;-77
2023/03/11 02:28:59;;;;;;;4.18;3.47;;;2.40;99.90;;;;;;2075719;28;20052;-74
2023/03/11 02:30:02;;;;;;;4.03;3.63;;;2.40;99.90;;;;;;2083347;28;20519;-76
2023/03/11 02:31:05;;;;;;;4.60;3.45;;;2.40;99.90;;;;;;2083401;28;20060;-76
2023/03/11 02:32:09;;;;;;;3.88;3.47;;;2.40;99.90;;;;;;2083002;28;20563;-76
2023/03/11 02:33:13;;;;;;;4.05;3.70;;;2.30;99.90;;;;;;2083674;28;20025;-77
2023/03/11 02:34:22;;;;;;;3.95;3.53;;;2.40;99.90;;;;;;2083296;28;20031;-76
2023/03/11 02:35:24;;;;;;;4.00;3.60;;;2.30;99.90;;;;;;2085151;28;20108;-77
2023/03/11 02:36:37;;;;;;;3.70;3.40;;;2.30;99.90;;;;;;2072746;28;20092;-78
2023/03/11 02:37:47;;;;;;;4.32;3.92;;;2.30;99.90;;;;;;2081057;28;20025;-78
2023/03/11 02:38:48;;;;;;;4.50;3.90;;;2.40;99.90;;;;;;2084796;28;20029;-77
2023/03/11 02:39:52;;;;;;;3.97;3.58;;;2.40;99.90;;;;;;2087950;28;20829;-79
2023/03/11 02:40:58;;;;;;;3.72;3.42;;;2.40;99.90;;;;;;2080185;28;20465;-77
2023/03/11 02:42:09;;;;;;;3.65;3.35;;;2.30;99.90;;;;;;2072488;28;20468;-77
2023/03/11 02:43:13;;;;;;;3.80;3.47;;;2.30;99.90;;;;;;2075131;28;20052;-78
2023/03/11 02:44:15;;;;;;;3.90;3.50;;;2.30;99.90;;;;;;2083498;28;20064;-78
2023/03/11 02:45:17;;;;;;;4.43;4.03;;;2.30;99.90;;;;;;2074973;28;20108;-77
2023/03/11 02:46:19;;;;;;;4.40;3.80;;;2.30;99.90;;;;;;2074935;28;20094;-77
2023/03/11 02:47:20;;;;;;;4.10;3.70;;;2.30;99.90;;;;;;2092769;28;20103;-78
2023/03/11 02:48:21;;;;;;;4.28;3.88;;;2.40;99.90;;;;;;2091673;28;20036;-77
2023/03/11 02:49:22;;;;;;;4.05;3.50;;;2.40;99.90;;;;;;2086953;28;20040;-77
2023/03/11 02:50:24;;;;;;;3.85;3.53;;;2.30;99.90;;;;;;2088400;28;20118;-78
2023/03/11 02:51:25;;;;;;;4.40;3.70;;;2.30;99.90;;;;;;2084425;28;20068;-77
2023/03/11 02:52:27;;;;;;;4.00;3.60;;;2.30;99.90;;;;;;2081370;28;20037;-77
2023/03/11 02:53:33;;;;;;;4.15;3.67;;;2.30;99.90;;;;;;2074662;28;20635;-76
2023/03/11 02:54:34;;;;;;;3.92;3.53;;;2.30;99.90;;;;;;2072916;28;20583;-75
2023/03/11 02:55:35;;;;;;;3.90;3.50;;;2.30;99.90;;;;;;2079267;28;20017;-76
2023/03/11 02:56:35;;;;;;;9.07;5.55;;;2.20;99.90;;;;;;2097357;28;20421;-76
2023/03/11 02:57:37;;;;;;;4.65;3.95;;;2.30;99.90;;;;;;2086062;28;20548;-76
2023/03/11 02:58:39;;;;;;;4.82;4.18;;;2.30;99.90;;;;;;2086555;28;20029;-76
2023/03/11 02:59:39;;;;;;;4.43;4.03;;;2.20;99.90;;;;;;2082588;28;20035;-76
2023/03/11 03:00:40;;;;;;;4.57;4.18;;;2.20;99.90;;;;;;2076032;28;20017;-76
2023/03/11 03:01:42;;;;;;;4.20;3.80;;;2.20;99.90;;;;;;2079113;28;20236;-76
2023/03/11 03:02:44;;;;;;;4.68;4.18;;;2.10;99.90;;;;;;2074304;28;20459;-75
2023/03/11 03:03:44;;;;;;;4.13;3.72;;;2.10;99.90;;;;;;2072930;28;20067;-75
2023/03/11 03:04:45;;;;;;;4.40;4.00;;;2.10;99.90;;;;;;2073403;28;20037;-74
2023/03/11 03:05:46;;;;;;;5.00;3.95;;;2.10;99.90;;;;;;2078132;28;20095;-73
2023/03/11 03:06:47;;;;;;;4.10;3.70;;;2.10;99.90;;;;;;2090627;28;20062;-74
2023/03/11 03:07:50;;;;;;;4.07;3.63;;;2.10;99.90;;;;;;2077938;28;20009;-74
2023/03/11 03:08:51;;;;;;;5.18;3.92;;;2.00;99.90;;;;;;2078383;28;20029;-73
2023/03/11 03:09:52;;;;;;;4.30;3.80;;;2.00;99.90;;;;;;2074580;28;20541;-74
2023/03/11 03:10:53;;;;;;;4.25;3.85;;;2.00;99.90;;;;;;2075812;28;20439;-72
2023/03/11 03:11:53;;;;;;;4.20;3.80;;;2.00;99.90;;;;;;2070542;28;20061;-73
2023/03/11 03:12:54;;;;;;;4.05;3.60;;;2.00;99.90;;;;;;2074278;28;20025;-74
2023/03/11 03:13:54;;;;;;;4.70;3.67;;;2.00;99.90;;;;;;2086872;28;20925;-75
2023/03/11 03:14:56;;;;;;;4.00;3.60;;;1.90;99.90;;;;;;2087384;28;20024;-75
2023/03/11 03:15:58;;;;;;;4.30;3.80;;;1.90;99.90;;;;;;2086817;28;20509;-74
2023/03/11 03:16:58;;;;;;;4.22;3.58;;;1.90;99.90;;;;;;2079408;28;20055;-77
2023/03/11 03:17:59;;;;;;;4.20;3.80;;;1.90;99.90;;;;;;2080568;28;20446;-78
2023/03/11 03:19:00;;;;;;;4.10;3.70;;;1.90;99.90;;;;;;2082494;28;20041;-77
2023/03/11 03:20:03;;;;;;;4.65;4.00;;;2.00;99.90;;;;;;2086165;28;20061;-77
2023/03/11 03:21:04;;;;;;;4.40;4.00;;;1.90;99.90;;;;;;2086037;28;20032;-77
2023/03/11 03:22:05;;;;;;;4.10;3.70;;;1.90;99.90;;;;;;2080248;28;20521;-78
2023/03/11 03:23:06;;;;;;;5.32;4.10;;;1.90;99.90;;;;;;2070665;28;20033;-78
2023/03/11 03:24:07;;;;;;;4.28;3.88;;;1.90;99.90;;;;;;2064293;28;20053;-78
2023/03/11 03:25:09;;;;;;;4.28;3.88;;;1.90;99.90;;;;;;2082179;28;20128;-78
2023/03/11 03:26:12;;;;;;;4.25;3.85;;;1.80;99.90;;;;;;2080310;28;20370;-78
2023/03/11 03:27:13;;;;;;;4.38;3.88;;;1.80;99.90;;;;;;2082206;28;20040;-77
2023/03/11 03:28:14;;;;;;;5.07;4.47;;;1.80;99.90;;;;;;2080833;28;20020;-77
2023/03/11 03:29:18;;;;;;;4.82;4.28;;;1.80;99.90;;;;;;2082713;28;20059;-77
2023/03/11 03:30:19;;;;;;;4.72;4.22;;;1.80;99.90;;;;;;2086308;28;20404;-77
2023/03/11 03:31:21;;;;;;;4.95;4.40;;;1.80;99.90;;;;;;2086286;28;20506;-76
2023/03/11 03:32:21;;;;;;;5.70;5.00;;;1.70;99.90;;;;;;2080042;28;20026;-76
2023/03/11 03:33:22;;;;;;;4.72;4.30;;;1.70;99.90;;;;;;2081817;28;20107;-77
2023/03/11 03:34:23;;;;;;;5.45;4.72;;;1.70;99.90;;;;;;2080808;28;20144;-78
2023/03/11 03:35:24;;;;;;;5.28;4.78;;;1.70;99.90;;;;;;2087395;28;20423;-77
2023/03/11 03:36:38;;;;;;;6.05;5.40;;;1.60;99.90;;;;;;2080214;28;20376;-77
2023/03/11 03:37:39;;;;;;;6.70;5.68;;;1.60;99.90;;;;;;2082478;28;20078;-78
2023/03/11 03:38:40;;;;;;;6.40;5.60;;;1.60;99.90;;;;;;2084474;28;20075;-78
2023/03/11 03:39:40;;;;;;;6.78;5.70;;;1.60;99.90;;;;;;2082476;28;20337;-78
2023/03/11 03:40:46;;;;;;;6.78;5.82;;;1.60;99.90;;;;;;2081040;28;20037;-78
2023/03/11 03:41:48;;;;;;;8.32;6.30;;;1.60;99.90;;;;;;2069629;28;20128;-80
2023/03/11 03:42:49;;;;;;;7.47;6.57;;;1.60;99.90;;;;;;2068332;28;20088;-79
2023/03/11 03:43:50;;;;;;;7.13;6.43;;;1.60;99.90;;;;;;2078955;28;20172;-80
2023/03/11 03:44:54;;;;;;;8.63;6.63;;;1.50;99.90;;;;;;2074623;28;20037;-81
2023/03/11 03:46:03;;;;;;;8.77;6.85;;;1.50;99.90;;;;;;2074147;28;20033;-81
2023/03/11 03:47:08;;;;;;;9.40;7.10;;;1.50;99.90;;;;;;2080332;28;20033;-79
2023/03/11 03:48:08;;;;;;;8.82;7.07;;;1.50;99.90;;;;;;2078633;28;20061;-80
2023/03/11 03:49:14;;;;;;;8.60;7.22;;;1.50;99.90;;;;;;2086692;28;20111;-81
2023/03/11 03:50:14;;;;;;;8.65;7.18;;;1.50;99.90;;;;;;2078863;28;20067;-80
2023/03/11 03:51:18;;;;;;;8.43;7.18;;;1.50;99.90;;;;;;2088536;28;20071;-78
2023/03/11 03:52:33;;;;;;;9.27;7.38;;;1.50;99.90;;;;;;2087333;28;20163;-78
2023/03/11 03:53:35;;;;;;;8.80;7.25;;;1.50;99.90;;;;;;2088304;28;20565;-78
2023/03/11 03:54:36;;;;;;;8.63;7.40;;;1.50;99.90;;;;;;2090148;28;20942;-79
2023/03/11 03:55:37;;;;;;;10.57;7.82;;;1.50;99.90;;;;;;2073800;28;20162;-78
2023/03/11 03:56:38;;;;;;;8.88;7.43;;;1.50;99.90;;;;;;2061673;28;20033;-80
2023/03/11 03:57:39;;;;;;;10.15;8.07;;;1.50;99.90;;;;;;2082037;28;20411;-76
2023/03/11 03:58:43;;;;;;;10.35;7.85;;;1.50;99.90;;;;;;2079946;28;20025;-78
2023/03/11 03:59:44;;;;;;;9.80;7.95;;;1.50;99.90;;;;;;2079259;28;20029;-79
2023/03/11 04:00:44;;;;;;;9.40;7.85;;;1.50;99.90;;;;;;2088002;28;20039;-78
2023/03/11 04:01:45;;;;;;;10.82;8.02;;;1.50;99.90;;;;;;2087043;28;20062;-78
2023/03/11 04:02:45;;;;;;;10.35;8.43;;;1.50;99.90;;;;;;2088722;28;20151;-80
2023/03/11 04:03:55;;;;;;;10.80;8.38;;;1.40;99.90;;;;;;2083984;28;20075;-78
2023/03/11 04:04:56;;;;;;;10.50;8.30;;;1.40;99.90;;;;;;2077564;28;20529;-78
2023/03/11 04:06:18;;;;;;;9.85;8.18;;;1.40;99.90;;;;;;2081273;28;20354;-77
2023/03/11 04:07:19;;;;;;;10.63;8.68;;;1.40;99.90;;;;;;2085150;28;20523;-79
2023/03/11 04:08:20;;;;;;;11.10;8.85;;;1.40;99.90;;;;;;2084100;28;20023;-79
2023/03/11 04:09:20;;;;;;;11.18;8.45;;;1.40;99.90;;;;;;2078366;28;20496;-78
2023/03/11 04:10:21;;;;;;;10.43;8.45;;;1.50;99.90;;;;;;2083456;28;20021;-77
2023/03/11 04:11:22;;;;;;;11.57;8.95;;;1.40;99.90;;;;;;2087074;28;20472;-80
2023/03/11 04:12:23;;;;;;;10.55;8.55;;;1.40;99.90;;;;;;2076069;28;20025;-80
2023/03/11 04:13:24;;;;;;;10.80;8.77;;;1.40;99.90;;;;;;2078873;28;20021;-78
2023/03/11 04:14:25;;;;;;;11.38;8.85;;;1.40;99.90;;;;;;2086934;28;20028;-78
2023/03/11 04:15:30;;;;;;;12.52;9.13;;;1.40;99.90;;;;;;2071088;28;20124;-79
2023/03/11 04:16:31;;;;;;;11.70;9.10;;;1.40;99.90;;;;;;2072303;28;20534;-77
2023/03/11 04:17:37;;;;;;;11.13;8.88;;;1.40;99.90;;;;;;2080763;28;20035;-78
2023/03/11 04:18:37;;;;;;;11.98;8.85;;;1.40;99.90;;;;;;2077364;28;20394;-78
2023/03/11 04:19:40;;;;;;;11.25;8.98;;;1.40;99.90;;;;;;2080384;28;20554;-78
2023/03/11 04:20:41;;;;;;;11.65;8.82;;;1.40;99.90;;;;;;2081401;28;20060;-78
2023/03/11 04:21:42;;;;;;;13.00;9.45;;;1.40;99.90;;;;;;2079753;28;20028;-78
2023/03/11 04:22:42;;;;;;;11.27;9.23;;;1.40;99.90;;;;;;2086156;28;20048;-79
2023/03/11 04:23:43;;;;;;;12.18;9.63;;;1.30;99.90;;;;;;2080636;28;20510;-79
2023/03/11 04:24:46;;;;;;;12.73;10.27;;;1.40;99.90;;;;;;2073834;28;20080;-78
2023/03/11 04:25:46;;;;;;;12.40;9.95;;;1.30;99.90;;;;;;2079322;28;20028;-77
2023/03/11 04:26:47;;;;;;;14.32;10.70;;;1.40;99.90;;;;;;2092512;28;20080;-78
2023/03/11 04:27:51;;;;;;;14.48;11.15;;;1.40;99.90;;;;;;2082030;28;20059;-78
2023/03/11 04:28:52;;;;;;;14.40;10.80;;;1.30;99.90;;;;;;2077337;28;20100;-78
2023/03/11 04:29:53;;;;;;;13.93;10.63;;;1.30;99.90;;;;;;2085468;28;20033;-78
2023/03/11 04:30:54;;;;;;;14.20;10.65;;;1.30;99.90;;;;;;2083752;28;20561;-77
2023/03/11 04:31:54;;;;;;;14.45;11.05;;;1.30;99.90;;;;;;2078445;28;20041;-78
2023/03/11 04:32:55;;;;;;;16.20;11.43;;;1.40;99.90;;;;;;2081039;28;20543;-78
2023/03/11 04:33:56;;;;;;;13.38;10.35;;;1.40;99.90;;;;;;2087829;28;20031;-77
2023/03/11 04:34:57;;;;;;;16.25;11.23;;;1.40;99.90;;;;;;2086622;28;20032;-77
2023/03/11 04:35:57;;;;;;;13.23;10.73;;;1.40;99.90;;;;;;2079392;28;20033;-77
2023/03/11 04:36:59;;;;;;;13.70;10.85;;;1.40;99.90;;;;;;2088209;28;20056;-76
2023/03/11 04:38:04;;;;;;;15.20;11.60;;;1.30;99.90;;;;;;2088142;28;20456;-76
2023/03/11 04:39:06;;;;;;;15.68;11.40;;;1.30;99.90;;;;;;2085552;28;20036;-77
2023/03/11 04:40:13;;;;;;;15.85;11.82;;;1.30;99.90;;;;;;2085461;28;20091;-77
2023/03/11 04:41:14;;;;;;;15.23;11.65;;;1.30;99.90;;;;;;2081606;28;20111;-76
2023/03/11 04:42:17;;;;;;;15.07;11.63;;;1.30;99.90;;;;;;2069161;28;20482;-76
2023/03/11 04:43:18;;;;;;;16.08;11.57;;;1.20;99.90;;;;;;2079831;28;20116;-76
2023/03/11 04:44:19;;;;;;;16.40;11.82;;;1.20;99.90;;;;;;2082106;28;20082;-77
2023/03/11 04:45:20;;;;;;;16.80;11.95;;;1.20;99.90;;;;;;2086837;28;20107;-77
2023/03/11 04:46:21;;;;;;;15.43;12.00;;;1.20;99.90;;;;;;2086798;28;20051;-77
2023/03/11 04:47:22;;;;;;;16.70;12.10;;;1.20;99.90;;;;;;2080086;28;20075;-76
2023/03/11 04:48:24;;;;;;;16.08;12.10;;;1.20;99.90;;;;;;2077262;28;20059;-77
2023/03/11 04:49:25;;;;;;;18.33;12.23;;;1.20;99.90;;;;;;2080930;28;20556;-78
2023/03/11 04:50:26;;;;;;;16.55;12.40;;;1.30;99.90;;;;;;2085337;28;20187;-78
2023/03/11 04:51:27;;;;;;;16.88;12.13;;;1.30;99.90;;;;;;2081869;28;20032;-78
2023/03/11 04:52:28;;;;;;;16.70;11.85;;;1.20;99.90;;;;;;2077936;28;20526;-78
2023/03/11 04:53:29;;;;;;;15.13;11.85;;;1.20;99.90;;;;;;2087382;28;20122;-77
2023/03/11 04:54:30;;;;;;;17.25;12.70;;;1.20;99.90;;;;;;2078712;28;20032;-78
2023/03/11 04:55:32;;;;;;;17.13;12.55;;;1.30;99.90;;;;;;2064146;28;20297;-77
2023/03/11 04:56:32;;;;;;;16.48;12.38;;;1.30;99.90;;;;;;2073325;28;20095;-78
2023/03/11 04:57:34;;;;;;;16.23;11.93;;;1.30;99.90;;;;;;2074705;28;20052;-78
2023/03/11 04:58:36;;;;;;;15.75;11.65;;;1.30;99.90;;;;;;2083877;28;20033;-78
2023/03/11 04:59:37;;;;;;;15.48;11.75;;;1.30;99.90;;;;;;2089687;28;20040;-78
2023/03/11 05:00:38;;;;;;;15.40;11.82;;;1.30;99.90;;;;;;2085441;28;20146;-78
2023/03/11 05:01:42;;;;;;;13.85;11.02;;;1.30;99.90;;;;;;2081391;28;20056;-78
2023/03/11 05:02:43;;;;;;;16.35;11.55;;;1.40;99.90;;;;;;2065699;28;20026;-79
2023/03/11 05:03:45;;;;;;;14.68;11.27;;;1.30;99.90;;;;;;2073267;28;20022;-77
2023/03/11 05:04:46;;;;;;;13.90;11.20;;;1.30;99.90;;;;;;2072172;28;20034;-76
2023/03/11 05:05:49;;;;;;;13.95;10.88;;;1.30;99.90;;;;;;2089047;28;20020;-79
2023/03/11 05:06:50;;;;;;;13.77;10.82;;;1.30;99.90;;;;;;2073316;28;20029;-78
2023/03/11 05:07:51;;;;;;;13.38;10.60;;;1.30;99.90;;;;;;2063420;28;20497;-79
2023/03/11 05:08:51;;;;;;;14.45;11.27;;;1.30;99.90;;;;;;2087924;28;20021;-78
2023/03/11 05:09:52;;;;;;;14.10;11.10;;;1.30;99.90;;;;;;2079496;28;20120;-78
2023/03/11 05:10:53;;;;;;;13.60;10.65;;;1.30;99.90;;;;;;2088858;28;20066;-78
2023/03/11 05:11:55;;;;;;;13.55;10.60;;;1.30;99.90;;;;;;2081399;28;20041;-79
2023/03/11 05:12:55;;;;;;;12.85;10.05;;;1.30;99.90;;;;;;2079257;28;20025;-77
2023/03/11 05:13:59;;;;;;;14.02;10.68;;;1.30;99.90;;;;;;2082061;28;20573;-80
2023/03/11 05:15:00;;;;;;;15.20;11.63;;;1.40;99.90;;;;;;2080068;28;20020;-79
2023/03/11 05:16:01;;;;;;;14.13;10.70;;;1.40;99.90;;;;;;2086860;28;20043;-77
2023/03/11 05:17:01;;;;;;;12.95;10.27;;;1.40;99.90;;;;;;2079741;28;20608;-80
2023/03/11 05:18:04;;;;;;;14.88;10.60;;;1.40;99.90;;;;;;2078199;28;20063;-79
2023/03/11 05:19:29;;;;;;;13.82;10.63;;;1.40;99.90;;;;;;2085618;28;20421;-77
2023/03/11 05:20:26;;;;;;;14.20;10.38;;;1.40;99.90;;;;;;2081089;28;20108;-75
2023/03/11 05:21:26;;;;;;;13.40;10.25;;;1.40;99.90;;;;;;2087328;28;20073;-80
2023/03/11 05:22:27;;;;;;;12.52;10.25;;;1.40;99.90;;;;;;2089513;28;20028;-79
2023/03/11 05:23:28;;;;;;;14.18;10.80;;;1.40;99.90;;;;;;2081648;28;20021;-79
2023/03/11 05:24:29;;;;;;;13.50;10.70;;;1.40;99.90;;;;;;2079279;28;20091;-78
2023/03/11 05:25:30;;;;;;;14.10;10.82;;;1.40;99.90;;;;;;2084847;28;20132;-78
2023/03/11 05:26:31;;;;;;;13.00;10.60;;;1.40;99.90;;;;;;2080179;28;20029;-78
2023/03/11 05:27:31;;;;;;;13.82;10.73;;;1.40;99.90;;;;;;2073389;28;20049;-79
2023/03/11 05:28:32;;;;;;;13.02;10.27;;;1.30;99.90;;;;;;2081682;28;20037;-78